createdAt,value
2022-10-06T00:02:29.752Z,47.75
2022-10-06T00:05:00.245Z,48.00
2022-10-06T00:07:31.027Z,46.00
2022-10-06T00:10:01.466Z,37.67
2022-10-06T00:12:31.580Z,35.00
2022-10-06T00:15:01.710Z,37.33
2022-10-06T00:17:31.837Z,35.00
2022-10-06T00:20:01.898Z,35.00
2022-10-06T00:22:40.412Z,26.00
2022-10-06T00:25:13.033Z,20.00
2022-10-06T00:27:46.476Z,13.75
2022-10-06T00:30:24.101Z,20.75
2022-10-06T00:33:06.462Z,2.00
2022-10-06T00:35:37.562Z,4.00
2022-10-06T00:38:08.353Z,0.00
2022-10-06T00:40:46.677Z,17.67
2022-10-06T00:43:53.557Z,2.00
2022-10-06T00:46:36.564Z,2.00
2022-10-06T00:49:19.951Z,2.00
2022-10-06T00:51:56.364Z,0.00
2022-10-06T00:54:28.189Z,0.00
2022-10-06T00:56:59.379Z,10.67
2022-10-06T00:59:29.758Z,6.00
2022-10-06T01:02:11.205Z,1.50
2022-10-06T01:04:47.863Z,3.50
2022-10-06T01:07:22.300Z,21.75
2022-10-06T01:09:53.286Z,0.00
2022-10-06T01:12:24.008Z,0.00
2022-10-06T01:14:56.579Z,3.00
2022-10-06T01:17:36.247Z,11.00
2022-10-06T01:20:11.171Z,2.00
2022-10-06T01:22:55.399Z,4.00
2022-10-06T01:25:26.111Z,8.00
2022-10-06T01:27:59.017Z,1.00
2022-10-06T01:30:56.056Z,9.50
2022-10-06T01:33:27.519Z,5.00
2022-10-06T01:35:58.620Z,11.50
2022-10-06T01:38:29.800Z,0.00
2022-10-06T01:41:05.692Z,6.50
2022-10-06T01:43:37.993Z,2.00
2022-10-06T01:46:09.048Z,7.50
2022-10-06T01:48:40.987Z,2.00
2022-10-06T01:51:18.855Z,3.50
2022-10-06T01:53:49.525Z,5.50
2022-10-06T01:56:20.231Z,3.33
2022-10-06T01:58:51.325Z,12.00
2022-10-06T02:01:21.765Z,2.00
2022-10-06T02:03:52.170Z,0.00
2022-10-06T02:06:22.604Z,0.00
2022-10-06T02:08:52.913Z,6.50
2022-10-06T02:11:23.292Z,8.00
2022-10-06T02:13:53.513Z,0.00
2022-10-06T02:18:53.653Z,2.50
2022-10-06T02:21:25.314Z,0.00
2022-10-06T02:23:55.809Z,7.50
2022-10-06T02:26:27.164Z,8.50
2022-10-06T02:28:57.473Z,8.50
2022-10-06T02:31:28.821Z,4.00
2022-10-06T02:34:00.321Z,6.00
2022-10-06T02:36:31.883Z,1.33
2022-10-06T02:39:02.720Z,0.00
2022-10-06T02:41:34.079Z,0.67
2022-10-06T02:49:08.383Z,15.00
2022-10-06T02:51:39.123Z,4.00
2022-10-06T02:54:09.751Z,4.00
2022-10-06T02:56:39.806Z,6.00
2022-10-06T02:59:09.938Z,4.00
2022-10-06T03:01:43.609Z,4.00
2022-10-06T03:04:18.374Z,0.00
2022-10-06T03:06:50.617Z,4.67
2022-10-06T03:09:24.370Z,4.00
2022-10-06T03:11:55.977Z,13.50
2022-10-06T03:14:52.115Z,4.00
2022-10-06T03:17:23.850Z,6.50
2022-10-06T03:19:59.737Z,4.00
2022-10-06T03:22:30.190Z,5.00
2022-10-06T03:25:00.679Z,11.25
2022-10-06T03:27:30.888Z,3.00
2022-10-06T03:30:05.635Z,2.00
2022-10-06T03:32:37.590Z,9.00
2022-10-06T03:35:08.758Z,3.50
2022-10-06T03:37:39.052Z,2.00
2022-10-06T03:40:09.767Z,2.00
2022-10-06T03:42:40.345Z,3.00
2022-10-06T03:47:42.231Z,10.00
2022-10-06T03:50:12.935Z,15.50
2022-10-06T03:52:43.965Z,10.00
2022-10-06T03:55:14.621Z,12.67
2022-10-06T03:57:44.722Z,5.00
2022-10-06T04:00:18.806Z,14.00
2022-10-06T04:05:19.303Z,13.50
2022-10-06T04:07:49.472Z,2.00
2022-10-06T04:10:20.754Z,12.00
2022-10-06T04:12:51.116Z,1.00
2022-10-06T04:15:21.329Z,12.50
2022-10-06T04:17:51.553Z,4.67
2022-10-06T04:20:21.733Z,10.00
2022-10-06T04:22:53.173Z,1.00
2022-10-06T04:25:24.460Z,6.00
2022-10-06T04:27:57.911Z,8.50
2022-10-06T04:30:29.183Z,10.00
2022-10-06T04:32:59.326Z,6.67
2022-10-06T04:35:29.481Z,9.00
2022-10-06T04:37:59.653Z,8.00
2022-10-06T04:40:29.820Z,3.33
2022-10-06T04:43:00.029Z,0.00
2022-10-06T04:45:30.275Z,12.00
2022-10-06T04:48:01.379Z,5.50
2022-10-06T04:50:31.975Z,7.75
2022-10-06T04:53:15.215Z,6.00
2022-10-06T04:55:45.321Z,11.00
2022-10-06T05:00:45.435Z,5.50
2022-10-06T05:03:15.608Z,6.00
2022-10-06T05:05:47.048Z,13.75
2022-10-06T05:08:17.507Z,12.00
2022-10-06T05:10:48.171Z,13.00
2022-10-06T05:13:18.812Z,9.50
2022-10-06T05:15:58.665Z,23.50
2022-10-06T05:18:33.638Z,22.00
2022-10-06T05:21:06.992Z,15.00
2022-10-06T05:23:40.277Z,9.00
2022-10-06T05:26:12.416Z,13.50
2022-10-06T05:28:44.258Z,17.67
2022-10-06T05:31:23.600Z,9.00
2022-10-06T05:33:54.457Z,10.50
2022-10-06T05:36:27.957Z,8.50
2022-10-06T05:39:00.620Z,4.00
2022-10-06T05:41:39.110Z,2.50
2022-10-06T05:44:12.589Z,4.00
2022-10-06T05:46:44.497Z,8.00
2022-10-06T05:49:15.956Z,2.00
2022-10-06T05:52:12.700Z,14.00
2022-10-06T05:54:44.334Z,3.33
2022-10-06T05:57:15.423Z,8.25
2022-10-06T05:59:47.279Z,11.00
2022-10-06T06:02:18.934Z,12.00
2022-10-06T06:07:19.342Z,14.75
2022-10-06T06:09:50.007Z,22.00
2022-10-06T06:12:20.376Z,17.00
2022-10-06T06:15:11.948Z,6.00
2022-10-06T06:17:50.691Z,20.25
2022-10-06T06:20:23.607Z,18.00
2022-10-06T06:22:56.833Z,15.00
2022-10-06T06:25:29.966Z,14.75
2022-10-06T06:28:00.205Z,11.50
2022-10-06T06:30:31.073Z,17.00
2022-10-06T06:33:01.829Z,15.00
2022-10-06T06:35:33.091Z,25.75
2022-10-06T06:38:03.409Z,24.00
2022-10-06T06:40:33.689Z,14.00
2022-10-06T06:43:03.995Z,29.75
2022-10-06T06:45:42.396Z,30.00
2022-10-06T06:51:14.748Z,20.00
2022-10-06T06:53:45.597Z,13.33
2022-10-06T06:56:16.339Z,16.00
2022-10-06T06:58:51.519Z,8.50
2022-10-06T07:01:24.786Z,13.50
2022-10-06T07:04:00.566Z,8.50
2022-10-06T07:06:35.381Z,16.25
2022-10-06T07:09:06.455Z,15.00
2022-10-06T07:11:39.827Z,12.25
2022-10-06T07:14:19.819Z,17.75
2022-10-06T07:17:09.499Z,8.50
2022-10-06T07:19:53.016Z,14.33
2022-10-06T07:22:45.152Z,13.75
2022-10-06T07:25:28.805Z,19.50
2022-10-06T07:28:09.054Z,17.00
2022-10-06T07:30:41.818Z,23.00
2022-10-06T07:33:16.773Z,19.50
2022-10-06T07:35:48.707Z,15.00
2022-10-06T07:38:25.859Z,16.25
2022-10-06T07:43:58.818Z,18.75
2022-10-06T07:46:32.222Z,9.50
2022-10-06T07:49:07.832Z,17.00
2022-10-06T07:51:38.923Z,15.00
2022-10-06T07:54:10.315Z,15.00
2022-10-06T07:57:18.954Z,17.25
2022-10-06T07:59:49.277Z,17.25
2022-10-06T08:02:21.356Z,6.00
2022-10-06T08:04:51.827Z,16.00
2022-10-06T08:07:23.953Z,19.33
2022-10-06T08:09:54.209Z,14.33
2022-10-06T08:15:32.627Z,22.25
2022-10-06T08:18:16.654Z,10.50
2022-10-06T08:20:51.468Z,14.00
2022-10-06T08:23:22.538Z,17.00
2022-10-06T08:25:58.181Z,13.50
2022-10-06T08:28:28.225Z,22.67
2022-10-06T08:30:58.463Z,25.67
2022-10-06T08:33:28.729Z,14.00
2022-10-06T08:36:05.557Z,14.00
2022-10-06T08:38:36.626Z,15.00
2022-10-06T08:41:29.091Z,14.75
2022-10-06T08:44:20.895Z,14.00
2022-10-06T08:47:12.985Z,14.50
2022-10-06T08:49:47.177Z,6.67
2022-10-06T08:52:42.453Z,12.00
2022-10-06T08:55:35.299Z,17.00
2022-10-06T08:58:24.408Z,12.33
2022-10-06T09:00:58.127Z,15.00
2022-10-06T09:03:31.556Z,8.00
2022-10-06T09:06:35.691Z,5.00
2022-10-06T09:09:47.200Z,15.00
2022-10-06T09:12:23.317Z,21.00
2022-10-06T09:15:11.399Z,11.00
2022-10-06T09:17:51.157Z,25.00
2022-10-06T09:20:43.941Z,31.00
2022-10-06T09:23:18.857Z,22.25
2022-10-06T09:25:49.222Z,21.50
2022-10-06T09:28:20.118Z,14.00
2022-10-06T09:30:54.526Z,13.50
2022-10-06T09:33:26.820Z,17.00
2022-10-06T09:36:13.608Z,17.00
2022-10-06T09:38:55.528Z,4.00
2022-10-06T09:41:30.840Z,22.00
2022-10-06T09:44:07.558Z,11.00
2022-10-06T09:46:44.738Z,5.50
2022-10-06T09:49:21.515Z,7.50
2022-10-06T09:52:17.024Z,7.33
2022-10-06T09:54:47.571Z,12.50
2022-10-06T09:57:27.178Z,9.50
2022-10-06T10:00:01.144Z,14.00
2022-10-06T10:02:38.433Z,8.50
2022-10-06T10:05:23.495Z,13.50
2022-10-06T10:08:11.372Z,22.67
2022-10-06T10:10:42.470Z,19.00
2022-10-06T10:13:27.942Z,12.00
2022-10-06T10:16:02.617Z,27.00
2022-10-06T10:18:35.034Z,14.50
2022-10-06T10:21:11.856Z,14.75
2022-10-06T10:23:56.583Z,9.50
2022-10-06T10:26:46.321Z,14.33
2022-10-06T10:29:33.147Z,7.50
2022-10-06T10:32:32.893Z,25.00
2022-10-06T10:35:06.455Z,14.00
2022-10-06T10:37:45.561Z,18.50
2022-10-06T10:40:33.559Z,14.00
2022-10-06T10:43:15.565Z,15.00
2022-10-06T10:45:59.778Z,18.50
2022-10-06T10:49:03.460Z,14.00
2022-10-06T10:54:40.283Z,15.67
2022-10-06T10:57:17.663Z,14.50
2022-10-06T10:59:56.919Z,10.00
2022-10-06T11:02:28.399Z,13.75
2022-10-06T11:05:32.201Z,13.33
2022-10-06T11:08:24.294Z,8.50
2022-10-06T11:11:02.500Z,4.00
2022-10-06T11:14:01.573Z,14.00
2022-10-06T11:17:01.309Z,13.25
2022-10-06T11:19:49.428Z,19.00
2022-10-06T11:22:36.584Z,8.50
2022-10-06T11:25:14.806Z,6.50
2022-10-06T11:27:56.503Z,14.50
2022-10-06T11:30:27.933Z,12.00
2022-10-06T11:33:21.045Z,12.50
2022-10-06T11:35:51.796Z,5.33
2022-10-06T11:38:39.661Z,7.00
2022-10-06T11:41:14.619Z,10.00
2022-10-06T11:44:09.001Z,18.25
2022-10-06T11:46:50.687Z,20.00
2022-10-06T11:49:33.913Z,15.33
2022-10-06T11:52:09.888Z,11.00
2022-10-06T11:54:46.149Z,9.00
2022-10-06T11:57:30.564Z,4.00
2022-10-06T12:00:07.343Z,10.67
2022-10-06T12:08:03.460Z,7.00
2022-10-06T12:10:36.227Z,15.25
2022-10-06T12:17:05.958Z,6.00
2022-10-06T12:19:34.549Z,29.33
2022-10-06T12:22:19.062Z,6.00
2022-10-06T12:25:08.661Z,6.00
2022-10-06T12:27:51.044Z,14.75
2022-10-06T12:30:59.278Z,15.00
2022-10-06T12:33:41.866Z,11.75
2022-10-06T12:36:20.894Z,14.00
2022-10-06T12:39:08.207Z,9.00
2022-10-06T12:42:09.691Z,25.00
2022-10-06T12:44:41.953Z,11.33
2022-10-06T12:47:39.347Z,17.00
2022-10-06T12:50:23.331Z,7.50
2022-10-06T12:53:07.287Z,16.75
2022-10-06T12:56:01.879Z,31.67
2022-10-06T12:58:34.643Z,12.00
2022-10-06T13:01:11.718Z,25.25
2022-10-06T13:03:42.022Z,16.50
2022-10-06T13:06:12.521Z,0.00
2022-10-06T13:08:44.060Z,12.25
2022-10-06T13:11:24.571Z,5.33
2022-10-06T13:14:02.449Z,9.50
2022-10-06T13:16:37.782Z,14.50
2022-10-06T13:19:16.194Z,11.00
2022-10-06T13:21:47.266Z,12.50
2022-10-06T13:24:23.151Z,10.50
2022-10-06T13:26:53.358Z,11.50
2022-10-06T13:29:28.550Z,4.50
2022-10-06T13:31:58.761Z,13.50
2022-10-06T13:34:39.722Z,4.00
2022-10-06T13:37:15.759Z,3.00
2022-10-06T13:39:46.065Z,3.50
2022-10-06T13:42:24.604Z,5.00
2022-10-06T13:45:05.344Z,12.50
2022-10-06T13:47:35.835Z,10.67
2022-10-06T13:50:19.425Z,13.00
2022-10-06T13:52:52.008Z,19.25
2022-10-06T13:55:27.340Z,17.00
2022-10-06T13:58:06.842Z,16.00
2022-10-06T14:01:02.060Z,16.00
2022-10-06T14:03:40.067Z,18.25
2022-10-06T14:06:21.965Z,17.75
2022-10-06T14:08:56.075Z,7.00
2022-10-06T14:11:30.170Z,22.50
2022-10-06T14:14:07.281Z,5.00
2022-10-06T14:16:37.674Z,3.00
2022-10-06T14:19:08.174Z,3.50
2022-10-06T14:21:46.167Z,8.25
2022-10-06T14:24:21.164Z,30.00
2022-10-06T14:26:53.774Z,10.00
2022-10-06T14:29:26.478Z,37.00
2022-10-06T14:34:26.540Z,22.50
2022-10-06T14:36:56.728Z,6.00
2022-10-06T14:39:27.170Z,14.25
2022-10-06T14:41:57.483Z,17.00
2022-10-06T14:44:28.128Z,8.00
2022-10-06T14:46:59.401Z,6.00
2022-10-06T14:49:29.953Z,8.00
2022-10-06T14:54:30.962Z,5.00
2022-10-06T14:57:01.309Z,4.00
2022-10-06T14:59:31.566Z,7.00
2022-10-06T15:02:02.066Z,5.00
2022-10-06T15:04:32.875Z,14.00
2022-10-06T15:07:20.876Z,9.50
2022-10-06T15:09:51.282Z,14.00
2022-10-06T15:12:22.468Z,10.50
2022-10-06T15:17:23.195Z,9.50
2022-10-06T15:19:53.509Z,8.50
2022-10-06T15:22:24.686Z,16.00
2022-10-06T15:24:54.770Z,14.50
2022-10-06T15:28:03.087Z,17.25
2022-10-06T15:30:33.441Z,16.67
2022-10-06T15:33:06.671Z,13.33
2022-10-06T15:35:37.784Z,15.50
2022-10-06T15:38:08.068Z,8.50
2022-10-06T15:40:38.586Z,10.00
2022-10-06T15:43:08.780Z,18.00
2022-10-06T15:45:38.680Z,9.33
2022-10-06T15:48:11.317Z,18.25
2022-10-06T15:50:42.084Z,20.00
2022-10-06T15:53:12.082Z,0.00
2022-10-06T15:55:42.233Z,7.00
2022-10-06T15:58:12.328Z,4.50
2022-10-06T16:00:42.598Z,16.00
2022-10-06T16:03:26.985Z,32.33
2022-10-06T16:06:01.759Z,14.00
2022-10-06T16:08:34.835Z,16.33
2022-10-06T16:11:05.759Z,8.00
2022-10-06T16:13:36.684Z,14.00
2022-10-06T16:16:07.055Z,21.25
2022-10-06T16:18:37.396Z,10.67
2022-10-06T16:21:07.642Z,14.67
2022-10-06T16:23:37.698Z,9.50
2022-10-06T16:26:08.673Z,32.50
2022-10-06T16:28:39.301Z,16.50
2022-10-06T16:31:09.600Z,2.50
2022-10-06T16:33:40.548Z,5.00
2022-10-06T16:36:12.582Z,10.00
2022-10-06T16:38:43.965Z,13.75
2022-10-06T16:41:14.912Z,17.00
2022-10-06T16:43:48.170Z,15.00
2022-10-06T16:46:24.672Z,7.50
2022-10-06T16:48:57.216Z,12.50
2022-10-06T16:51:33.291Z,3.33
2022-10-06T16:54:06.008Z,8.00
2022-10-06T16:56:39.212Z,13.50
2022-10-06T16:59:20.645Z,2.00
2022-10-06T17:04:24.569Z,14.00
2022-10-06T17:06:58.915Z,10.75
2022-10-06T17:09:30.994Z,4.00
2022-10-06T17:12:05.094Z,11.33
2022-10-06T17:17:07.025Z,14.00
2022-10-06T17:19:37.625Z,5.33
2022-10-06T17:22:07.693Z,7.33
2022-10-06T17:24:37.769Z,7.33
2022-10-06T17:27:07.973Z,13.33
2022-10-06T17:29:39.262Z,13.50
2022-10-06T17:32:10.048Z,4.00
2022-10-06T17:34:42.478Z,4.00
2022-10-06T17:37:13.057Z,6.00
2022-10-06T17:39:47.031Z,4.50
2022-10-06T17:42:18.180Z,10.50
2022-10-06T17:47:18.652Z,2.00
2022-10-06T17:49:49.012Z,13.50
2022-10-06T17:52:24.097Z,11.00
2022-10-06T17:54:55.738Z,23.33
2022-10-06T17:57:26.065Z,13.67
2022-10-06T17:59:59.098Z,0.00
2022-10-06T18:02:29.342Z,2.67
2022-10-06T18:04:59.424Z,0.00
2022-10-06T18:07:29.819Z,6.00
2022-10-06T18:10:17.726Z,26.25
2022-10-06T18:12:47.747Z,5.50
2022-10-06T18:15:17.824Z,8.00
2022-10-06T18:17:51.936Z,8.00
2022-10-06T18:20:22.791Z,4.00
2022-10-06T18:22:54.374Z,4.50
2022-10-06T18:25:27.042Z,15.25
2022-10-06T18:27:57.742Z,2.67
2022-10-06T18:30:29.507Z,8.50
2022-10-06T18:36:09.124Z,0.00
2022-10-06T18:36:16.619Z,6.00
2022-10-06T18:38:48.276Z,7.00
2022-10-06T18:41:20.868Z,6.00
2022-10-06T18:43:51.935Z,12.00
2022-10-06T18:46:40.057Z,14.33
2022-10-06T18:49:18.388Z,13.00
2022-10-06T18:51:54.683Z,0.00
2022-10-06T18:54:31.460Z,4.50
2022-10-06T18:57:02.243Z,17.50
2022-10-06T18:59:32.615Z,5.33
2022-10-06T19:02:03.674Z,4.00
2022-10-06T19:04:40.590Z,10.00
2022-10-06T19:07:11.076Z,12.00
2022-10-06T19:09:46.221Z,3.00
2022-10-06T19:12:17.017Z,33.00
2022-10-06T19:14:48.806Z,5.00
2022-10-06T19:17:19.054Z,20.67
2022-10-06T19:19:56.492Z,7.33
2022-10-06T19:22:26.436Z,4.00
2022-10-06T19:24:56.303Z,2.50
2022-10-06T19:27:26.813Z,6.67
2022-10-06T19:29:57.877Z,13.25
2022-10-06T19:32:34.532Z,4.00
2022-10-06T19:35:09.256Z,4.00
2022-10-06T19:37:41.282Z,5.00
2022-10-06T19:40:12.470Z,5.00
2022-10-06T19:42:52.373Z,7.00
2022-10-06T19:45:22.646Z,31.75
2022-10-06T19:47:53.379Z,6.00
2022-10-06T19:50:23.810Z,5.00
2022-10-06T19:52:53.890Z,28.25
2022-10-06T19:55:25.105Z,32.00
2022-10-06T19:57:56.038Z,32.25
2022-10-06T20:00:26.291Z,31.50
2022-10-06T20:02:56.480Z,35.75
2022-10-06T20:05:26.727Z,35.25
2022-10-06T20:10:26.524Z,16.25
2022-10-06T20:12:56.806Z,29.25
2022-10-06T20:15:26.804Z,33.50
2022-10-06T20:17:57.173Z,41.75
2022-10-06T20:20:27.534Z,36.50
2022-10-06T20:22:57.693Z,34.75
2022-10-06T20:25:27.940Z,20.00
2022-10-06T20:27:58.643Z,31.25
2022-10-06T20:30:29.767Z,37.00
2022-10-06T20:33:01.692Z,32.50
2022-10-06T20:35:31.969Z,38.00
2022-10-06T20:38:02.656Z,26.00
2022-10-06T20:40:43.916Z,35.00
2022-10-06T20:43:15.394Z,31.00
2022-10-06T20:45:46.819Z,40.00
2022-10-06T20:48:16.939Z,35.25
2022-10-06T20:50:47.313Z,37.00
2022-10-06T20:53:18.077Z,31.75
2022-10-06T20:55:55.386Z,37.33
2022-10-06T20:58:26.505Z,31.67
2022-10-06T21:00:56.945Z,30.00
2022-10-06T21:03:27.873Z,35.67
2022-10-06T21:05:57.876Z,31.75
2022-10-06T21:08:27.951Z,30.75
2022-10-06T21:11:03.019Z,39.00
2022-10-06T21:13:33.927Z,37.00
2022-10-06T21:16:06.049Z,36.50
2022-10-06T21:18:36.733Z,42.00
2022-10-06T21:21:11.110Z,33.33
2022-10-06T21:23:43.838Z,41.25
2022-10-06T21:26:17.680Z,31.75
2022-10-06T21:31:20.402Z,34.75
2022-10-06T21:33:51.668Z,38.00
2022-10-06T21:36:24.101Z,34.50
2022-10-06T21:38:59.040Z,35.50
2022-10-06T21:41:32.984Z,34.75
2022-10-06T21:44:05.797Z,36.75
2022-10-06T21:46:52.713Z,31.25
2022-10-06T21:49:25.088Z,30.25
2022-10-06T21:51:59.617Z,44.25
2022-10-06T21:54:29.901Z,40.00
2022-10-06T21:59:30.892Z,42.75
2022-10-06T22:02:01.364Z,40.00
2022-10-06T22:04:31.968Z,36.00
2022-10-06T22:07:03.621Z,32.75
2022-10-06T22:09:34.281Z,33.25
2022-10-06T22:12:04.553Z,33.33
2022-10-06T22:14:34.721Z,41.67
2022-10-06T22:17:06.271Z,35.67
2022-10-06T22:19:36.797Z,40.67
2022-10-06T22:22:06.888Z,37.50
2022-10-06T22:24:37.901Z,38.00
2022-10-06T22:27:08.296Z,35.25
2022-10-06T22:29:38.501Z,41.25
2022-10-06T22:32:09.602Z,44.25
2022-10-06T22:34:39.985Z,44.75
2022-10-06T22:37:10.787Z,47.25
2022-10-06T22:39:41.008Z,48.25
2022-10-06T22:42:11.616Z,48.00
2022-10-06T22:44:41.972Z,48.00
2022-10-06T22:47:12.710Z,46.00
2022-10-06T22:49:42.756Z,2.00
2022-10-06T22:52:12.742Z,5.00
2022-10-06T22:54:42.931Z,8.00
2022-10-06T22:57:13.255Z,3.33
2022-10-06T22:59:43.573Z,18.00
2022-10-06T23:02:13.608Z,9.50
2022-10-06T23:04:43.659Z,12.00
2022-10-06T23:07:13.682Z,0.67
2022-10-06T23:09:43.730Z,4.00
2022-10-06T23:12:13.731Z,23.00
2022-10-06T23:14:43.886Z,9.33
2022-10-06T23:17:14.267Z,6.50
2022-10-06T23:19:44.349Z,3.00
2022-10-06T23:22:14.835Z,7.00
2022-10-06T23:24:44.862Z,6.00
2022-10-06T23:27:15.702Z,3.00
2022-10-06T23:29:46.349Z,6.50
2022-10-06T23:32:16.801Z,0.00
2022-10-06T23:34:47.250Z,0.50
2022-10-06T23:37:17.815Z,10.00
2022-10-06T23:39:47.890Z,29.25
2022-10-06T23:42:17.908Z,36.00
2022-10-06T23:44:48.501Z,2.00
2022-10-06T23:47:18.555Z,8.50
2022-10-06T23:49:48.679Z,13.25
2022-10-06T23:52:18.849Z,41.50
2022-10-06T23:54:49.117Z,14.50
2022-10-06T23:57:19.788Z,19.50
2022-10-06T23:59:49.984Z,18.00
